createdAt,value
2019-02-17T12:42:58.474Z,14.40
2019-02-17T12:47:02.099Z,14.40
2019-02-17T12:51:05.781Z,14.40
2019-02-17T12:55:09.424Z,14.40
2019-02-17T12:59:13.037Z,14.30
2019-02-17T13:03:16.605Z,14.30
2019-02-17T13:07:20.138Z,14.20
2019-02-17T13:11:23.698Z,14.20
2019-02-17T13:15:27.451Z,14.20
2019-02-17T13:19:31.102Z,14.30
2019-02-17T13:23:34.505Z,14.30
2019-02-17T13:27:38.087Z,14.20
2019-02-17T13:31:43.369Z,14.20
2019-02-17T13:35:47.084Z,14.30
2019-02-17T13:39:50.500Z,14.20
2019-02-17T13:43:53.889Z,14.20
2019-02-17T13:47:57.625Z,14.20
2019-02-17T13:52:01.136Z,14.20
2019-02-17T13:56:04.655Z,14.10
2019-02-17T14:00:20.921Z,14.10
2019-02-17T14:04:24.779Z,14.10
2019-02-17T14:08:28.597Z,14.20
2019-02-17T14:12:32.277Z,14.20
2019-02-17T14:16:35.824Z,14.20
2019-02-17T14:20:39.439Z,14.10
2019-02-17T14:24:42.819Z,13.90
2019-02-17T14:28:48.532Z,13.80
2019-02-17T14:32:51.970Z,13.60
2019-02-17T14:36:55.510Z,13.60
2019-02-17T14:41:00.051Z,13.60
2019-02-17T14:45:04.711Z,13.40
2019-02-17T14:49:10.146Z,13.20
2019-02-17T14:53:13.473Z,13.00
2019-02-17T14:57:17.084Z,12.70
2019-02-17T15:01:20.560Z,12.40
2019-02-17T15:05:24.375Z,12.10
2019-02-17T15:09:27.835Z,11.90
2019-02-17T15:13:31.399Z,11.60
2019-02-17T15:17:35.222Z,11.40
2019-02-17T15:21:38.769Z,11.20
2019-02-17T15:25:42.585Z,11.00
2019-02-17T15:29:47.081Z,10.70
2019-02-17T15:33:50.491Z,10.50
2019-02-17T15:37:54.248Z,10.20
2019-02-17T15:41:57.737Z,10.00
2019-02-17T15:46:01.272Z,10.00
2019-02-17T15:50:07.560Z,9.90
2019-02-17T15:54:12.081Z,9.70
2019-02-17T15:58:17.273Z,9.60
2019-02-17T16:02:20.681Z,9.50
2019-02-17T16:06:24.259Z,9.30
2019-02-17T16:10:27.763Z,9.10
2019-02-17T16:14:31.275Z,8.90
2019-02-17T16:18:34.683Z,8.70
2019-02-17T16:22:38.298Z,8.40
2019-02-17T16:26:41.707Z,8.20
2019-02-17T16:30:45.111Z,8.10
2019-02-17T16:34:48.627Z,7.90
2019-02-17T16:38:52.139Z,7.80
2019-02-17T16:42:55.650Z,7.60
2019-02-17T16:46:59.161Z,7.50
2019-02-17T16:51:02.673Z,7.40
2019-02-17T16:55:09.569Z,7.30
2019-02-17T16:59:13.140Z,7.20
2019-02-17T17:03:16.755Z,7.00
2019-02-17T17:07:20.369Z,6.90
2019-02-17T17:11:23.915Z,6.70
2019-02-17T17:15:28.718Z,6.60
2019-02-17T17:19:32.372Z,6.40
2019-02-17T17:23:35.986Z,6.30
2019-02-17T17:27:41.296Z,6.20
2019-02-17T17:31:45.718Z,6.10
2019-02-17T17:35:49.494Z,5.90
2019-02-17T17:39:53.000Z,5.60
2019-02-17T17:43:56.512Z,5.30
2019-02-17T17:48:00.888Z,5.20
2019-02-17T17:52:04.561Z,5.20
2019-02-17T17:56:08.043Z,5.20
2019-02-17T18:00:16.011Z,5.10
2019-02-17T18:04:19.598Z,5.00
2019-02-17T18:08:23.167Z,5.10
2019-02-17T18:12:26.791Z,5.10
2019-02-17T18:16:30.288Z,5.10
2019-02-17T18:20:33.849Z,5.10
2019-02-17T18:24:37.336Z,5.10
2019-02-17T18:28:40.935Z,5.00
2019-02-17T18:32:44.450Z,4.90
2019-02-17T18:36:48.307Z,4.80
2019-02-17T18:40:51.815Z,4.70
2019-02-17T18:44:55.439Z,4.60
2019-02-17T18:48:58.903Z,4.60
2019-02-17T18:53:02.554Z,4.60
2019-02-17T18:57:08.533Z,4.50
2019-02-17T19:01:11.729Z,4.50
2019-02-17T19:05:15.238Z,4.30
2019-02-17T19:09:18.852Z,3.70
2019-02-17T19:13:22.468Z,3.40
2019-02-17T19:17:26.080Z,3.30
2019-02-17T19:21:30.001Z,3.30
2019-02-17T19:25:33.795Z,3.30
2019-02-17T19:29:37.721Z,3.20
2019-02-17T19:33:41.640Z,3.30
2019-02-17T19:37:45.490Z,3.30
2019-02-17T19:41:48.906Z,3.30
2019-02-17T19:45:52.354Z,3.30
2019-02-17T19:49:56.909Z,3.40
2019-02-17T19:54:00.542Z,3.40
2019-02-17T19:58:04.405Z,3.30
2019-02-17T20:02:08.515Z,3.20
2019-02-17T20:06:13.813Z,3.30
2019-02-17T20:10:17.263Z,3.30
2019-02-17T20:14:20.878Z,3.00
2019-02-17T20:18:25.870Z,2.70
2019-02-17T20:22:29.736Z,2.70
2019-02-17T20:26:33.582Z,2.80
2019-02-17T20:30:37.395Z,2.70
2019-02-17T20:34:41.193Z,2.40
2019-02-17T20:38:44.704Z,2.30
2019-02-17T20:42:48.319Z,2.30
2019-02-17T20:46:51.987Z,2.40
2019-02-17T20:50:55.493Z,2.60
2019-02-17T20:54:59.157Z,3.00
2019-02-17T20:59:02.769Z,3.30
2019-02-17T21:03:06.338Z,3.50
2019-02-17T21:07:09.962Z,3.80
2019-02-17T21:11:13.513Z,3.90
2019-02-17T21:15:18.761Z,3.90
2019-02-17T21:19:22.236Z,3.90
2019-02-17T21:23:25.787Z,3.80
2019-02-17T21:27:29.322Z,3.60
2019-02-17T21:31:33.247Z,3.40
2019-02-17T21:35:36.647Z,3.20
2019-02-17T21:39:40.103Z,3.20
2019-02-17T21:43:43.534Z,3.00
2019-02-17T21:47:47.025Z,2.70
2019-02-17T21:51:50.810Z,2.80
2019-02-17T21:55:54.233Z,2.60
2019-02-17T21:59:57.727Z,2.60
2019-02-17T22:04:01.169Z,2.60
2019-02-17T22:08:04.584Z,2.70
2019-02-17T22:12:08.322Z,2.60
2019-02-17T22:16:11.957Z,2.50
2019-02-17T22:20:15.456Z,2.50
2019-02-17T22:24:18.904Z,2.30
2019-02-17T22:28:22.418Z,2.30
2019-02-17T22:32:26.127Z,2.30
2019-02-17T22:36:29.877Z,2.30
2019-02-17T22:40:33.524Z,2.40
2019-02-17T22:44:37.112Z,2.40
2019-02-17T22:48:40.752Z,2.40
2019-02-17T22:52:46.099Z,1.90
2019-02-17T22:56:50.028Z,1.70
2019-02-17T23:01:03.377Z,1.60
2019-02-17T23:05:07.248Z,1.60
2019-02-17T23:09:10.789Z,1.60
2019-02-17T23:13:14.210Z,1.60
2019-02-17T23:17:17.674Z,1.50
2019-02-17T23:21:22.998Z,1.10
2019-02-17T23:25:27.865Z,0.90
2019-02-17T23:29:31.734Z,0.80
2019-02-17T23:33:35.240Z,1.00
2019-02-17T23:37:38.878Z,1.10
2019-02-17T23:41:43.240Z,1.20
2019-02-17T23:45:46.923Z,1.40
2019-02-17T23:49:50.901Z,1.50
2019-02-17T23:53:54.485Z,1.70
2019-02-17T23:57:58.031Z,1.70
